Alberhill, CA

10:23 AM PDT on September 02, 2014 (GMT -0700)
The Jonesranch | Change Station
CLOSE
Current Station
Personal Weather Station
Location: Rancho Capistrano, Ca
Elevation: 3100 ft
Nearby Weather Stations

Elev 3100 ft 33.61 °N, 117.36 °W | Updated 7 seconds ago

Partly Cloudy
Partly Cloudy
86.1 °F
Feels Like 83 °F
N
0.0
Wind Variable Wind from SW
Gusts 4.0 mph

Today
High -- | Low -- °F
--% Chance of Precip.
Yesterday
High -- | Low -- °F
Precip. -- in
6:24 AM 7:13 PM
First Quarter, 53% visible
Pressure 29.88 in
Visibility 10.0 miles
Clouds Clear
Heat Index 83 °F
Dew Point 36 °F
Humidity 17%
Rainfall 0.00 in
Snow Depth Not available.
UV 6 out of 12
Pollen 7.00 out of 12
Ozone Good
PM2.5 Good
Flu Activity Not available.
METAR KF70 021655Z AUTO 00000KT 10SM CLR 25/12 A2988 RMK AO1

More Conditions Fewer Conditions

Pressure 29.88 in
Visibility 10.0 miles
Clouds Clear
Heat Index 83 °F
Dew Point 36 °F
Humidity 17%
Rainfall 0.00 in
Snow Depth Not available.
UV 6 out of 12
Pollen 7.00 out of 12
Ozone Good
PM2.5 Good
Flu Activity Not available.
METAR KF70 021655Z AUTO 00000KT 10SM CLR 25/12 A2988 RMK AO1

More Conditions Fewer Conditions

10-Day Weather Forecast

Almanac

Astronomy

Sep. 02, 2014 Rise Set
Actual Time 6:24 AM PDT 7:13 PM PDT
Civil Twilight 5:58 AM PDT 7:38 PM PDT
Nautical Twilight 5:28 AM PDT 8:08 PM PDT
Astronomical Twilight 4:58 AM PDT 8:39 PM PDT
Moon 1:52 PM PDT No Moon Set
Length of Visible Light 13h 39m
Length of Day
12h 49m
Tomorrow will be 2m 0s shorter.
First Quarter, 53% of the Moon is Illuminated
Today
First Quarter
Sep 8
Full
Sep 15
Last Quarter
Sep 24
New
Oct 1
First Quarter

Today's Extremes

State Highs State Lows

Community

WunderPhotos

Upload Photos

1,749,721 photos uploaded!

WunderBlogs® & News

By Dr. Jeff Masters
Director of Meteorology, Weather Underground
By Kari Strenfel
Meteorologist, Weather Underground
By Christopher C. Burt
Weather Historian, Weather Underground
September 2, 2014
September 2, 2014
September 2, 2014

Nearby

Air Quality

  Air Quality AQ Index Pollutant
Yesterday Good
OZONE
Yesterday Good
PM10
Current Good
PM2.5
Current Good
OZONE
Tuesday Moderate
OZONE
Tuesday Good
PM10
Tuesday Good
CO
Tuesday Good
NO2

Snow Depth

Station Depth Elevation
Summit Meadow 1 in 9122 ft
Blue Lakes 0 in 8000 ft
Forestdale Creek 0 in 8029 ft
Hagan's Meadow 0 in 8000 ft
CSS Lab 2 in 6900 ft

Earthquake Activity

City Distance Mag. Time & Date
Holtville, California 127 miles 2.5 5:43 PM PDT
2014-09-01
Holtville, California 129 miles 2.5 5:26 PM PDT
2014-09-01
Malibu, California 97 miles 2.5 8:11 AM PDT
2014-08-30
Minimum magnitude displayed is 2.5.

Coastal Water Temperatures

Place Temperature
Santa Monica Pier 72.0 °F
Los Angeles, CA 71.1 °F
La Jolla, CA 71.1 °F

Nearby Weather Stations